KTRI/TRI METAR and TAF weather

Enter ICAO airport designator
Station Type Date Time Source
KTRI METAR 2022/06/27 08:53 UTC NOAA

KTRI 270853Z 00000KT 8SM SCT009 OVC023 21/19 A3012 RMK AO2 SLP175 T02060194 56007 $


Station Type Date Time Source
KTRI Decoded METAR 2022/06/27 08:53 UTC NOAA

TRI-CITY REGIONAL AIRPORT, TN, United States (KTRI) 36-28N 082-24W 474M
Jun 27, 2022 - 04:53 AM EDT / 2022.06.27 0853 UTC
Wind: Calm:0
Visibility: 8 mile(s):0
Sky conditions: overcast
Temperature: 69.1 F (20.6 C)
Dew Point: 66.9 F (19.4 C)
Relative Humidity: 92%
Pressure (altimeter): 30.12 in. Hg (1019 hPa)
Pressure tendency: 0.02 inches (0.7 hPa) lower than three hours ago
ob: KTRI 270853Z 00000KT 8SM SCT009 OVC023 21/19 A3012 RMK AO2 SLP175 T02060194 56007
cycle: 9

Station Type Date Time Source
KTRI TAF 2022/06/27 06:22 UTC NOAA

TAF KTRI 270520Z 2706/2806 25004KT P6SM SCT030 BKN100
TEMPO 2708/2710 OVC025
FM271000 29004KT P6SM VCSH OVC015
TEMPO 2710/2714 4SM -SHRA BR OVC008
FM271800 01009KT P6SM BKN035
FM272200 02007KT P6SM SCT040 BKN150

Example: see airport list